Time;durP1;ratioP1;P1;durP2;ratioP2;P2;SDS_P1;SDS_P2;PMS_P1;PMS_P2;Temp;Humidity;BMP_temperature;BMP_pressure;BME280_temperature;BME280_humidity;BME280_pressure;Samples;Min_cycle;Max_cycle;Signal;HPM_P1;HPM_P2
2022/08/25 00:01:36;;;;;;;9.38;7.63;;;19.40;99.90;;;;;;5075828;28;20028;-63
2022/08/25 00:04:05;;;;;;;11.05;7.32;;;19.40;99.90;;;;;;5069124;28;20067;-63
2022/08/25 00:06:31;;;;;;;10.25;8.30;;;19.40;99.90;;;;;;5069222;28;20083;-63
2022/08/25 00:08:58;;;;;;;9.88;7.47;;;19.30;99.90;;;;;;5070534;28;20119;-61
2022/08/25 00:11:25;;;;;;;11.18;8.40;;;19.30;99.90;;;;;;5073931;28;20134;-61
2022/08/25 00:13:57;;;;;;;10.02;7.05;;;19.20;99.90;;;;;;5060298;28;20048;-61
2022/08/25 00:16:25;;;;;;;8.65;7.75;;;19.20;99.90;;;;;;5076865;28;20031;-61
2022/08/25 00:18:54;;;;;;;10.38;7.55;;;19.20;99.90;;;;;;5087402;28;20093;-61
2022/08/25 00:21:20;;;;;;;9.63;7.47;;;19.10;99.90;;;;;;5077969;28;20394;-61
2022/08/25 00:23:46;;;;;;;7.78;7.00;;;19.10;99.90;;;;;;5079588;28;20130;-61
2022/08/25 00:26:12;;;;;;;9.38;7.45;;;19.00;99.90;;;;;;5088832;28;20122;-61
2022/08/25 00:28:38;;;;;;;9.70;7.22;;;19.00;99.90;;;;;;5078424;28;20101;-61
2022/08/25 00:31:05;;;;;;;8.52;7.55;;;18.90;99.90;;;;;;5083579;28;20040;-61
2022/08/25 00:33:32;;;;;;;9.20;6.88;;;18.90;99.90;;;;;;5083236;28;20032;-64
2022/08/25 00:35:58;;;;;;;10.95;7.45;;;18.90;99.90;;;;;;5077362;28;20151;-61
2022/08/25 00:38:25;;;;;;;10.25;7.07;;;18.90;99.90;;;;;;5082117;28;20089;-63
2022/08/25 00:41:04;;;;;;;8.23;7.20;;;18.80;99.90;;;;;;5087610;28;20132;-63
2022/08/25 00:43:44;;;;;;;10.63;7.75;;;18.80;99.90;;;;;;5076736;28;20043;-63
2022/08/25 00:46:12;;;;;;;11.85;7.18;;;18.80;99.90;;;;;;5077520;28;20131;-63
2022/08/25 00:48:42;;;;;;;11.55;7.53;;;18.70;99.90;;;;;;5079072;28;20127;-61
2022/08/25 00:51:10;;;;;;;11.70;7.72;;;18.70;99.90;;;;;;5082464;28;20032;-61
2022/08/25 00:53:35;;;;;;;8.07;7.15;;;18.60;99.90;;;;;;5084876;28;20039;-61
2022/08/25 00:56:01;;;;;;;13.10;7.80;;;18.60;99.90;;;;;;5065456;28;20475;-61
2022/08/25 00:58:30;;;;;;;8.93;7.43;;;18.60;99.90;;;;;;5088412;28;20040;-61
2022/08/25 01:00:56;;;;;;;8.05;7.25;;;18.60;99.90;;;;;;5075772;28;20482;-61
2022/08/25 01:03:25;;;;;;;8.65;7.70;;;18.50;99.90;;;;;;5081614;28;20119;-61
2022/08/25 01:05:51;;;;;;;11.27;7.55;;;18.50;99.90;;;;;;5072646;28;20051;-62
2022/08/25 01:08:22;;;;;;;8.82;7.07;;;18.50;99.90;;;;;;5059883;28;20052;-63
2022/08/25 01:10:48;;;;;;;8.82;6.85;;;18.50;99.90;;;;;;5088718;28;20119;-63
2022/08/25 01:13:30;;;;;;;8.45;6.70;;;18.50;99.90;;;;;;5080419;28;20028;-63
2022/08/25 01:15:57;;;;;;;8.63;7.00;;;18.50;99.90;;;;;;5050880;28;20080;-63
2022/08/25 01:18:24;;;;;;;12.98;6.72;;;18.40;99.90;;;;;;5083998;28;20085;-62
2022/08/25 01:20:53;;;;;;;9.13;6.95;;;18.40;99.90;;;;;;5074727;28;20075;-63
2022/08/25 01:23:19;;;;;;;9.07;7.40;;;18.40;99.90;;;;;;5085512;28;20035;-63
2022/08/25 01:26:00;;;;;;;9.45;7.47;;;18.30;99.90;;;;;;5078133;28;20040;-63
2022/08/25 01:28:25;;;;;;;10.93;6.57;;;18.30;99.90;;;;;;5080297;28;20407;-63
2022/08/25 01:30:51;;;;;;;9.57;6.93;;;18.30;99.90;;;;;;5080611;28;20036;-63
2022/08/25 01:33:18;;;;;;;7.78;6.88;;;18.30;99.90;;;;;;5082156;28;20420;-63
2022/08/25 01:35:44;;;;;;;8.75;6.85;;;18.20;99.90;;;;;;5074615;28;20055;-63
2022/08/25 01:38:11;;;;;;;9.63;7.55;;;18.20;99.90;;;;;;5079311;28;20020;-63
2022/08/25 01:40:38;;;;;;;8.05;7.22;;;18.20;99.90;;;;;;5084815;28;20391;-63
2022/08/25 01:43:10;;;;;;;12.27;7.13;;;18.10;99.90;;;;;;5075706;28;20099;-63
2022/08/25 01:45:38;;;;;;;8.25;7.30;;;18.10;99.90;;;;;;5065541;28;20052;-62
2022/08/25 01:48:05;;;;;;;10.80;7.38;;;18.10;99.90;;;;;;5076095;28;20060;-62
2022/08/25 01:50:31;;;;;;;9.52;6.97;;;18.10;99.90;;;;;;5074240;28;20555;-62
2022/08/25 01:53:09;;;;;;;13.18;7.80;;;18.00;99.90;;;;;;5083239;28;20047;-63
2022/08/25 01:55:50;;;;;;;9.45;7.20;;;18.00;99.90;;;;;;5080973;28;20086;-63
2022/08/25 01:58:21;;;;;;;8.93;7.40;;;18.00;99.90;;;;;;5079894;28;20119;-62
2022/08/25 02:00:49;;;;;;;9.65;7.85;;;18.00;99.90;;;;;;5071003;28;20032;-62
2022/08/25 02:03:15;;;;;;;8.43;6.90;;;17.90;99.90;;;;;;5075397;28;20048;-63
2022/08/25 02:05:41;;;;;;;9.90;7.28;;;17.90;99.90;;;;;;5080020;28;20043;-62
2022/08/25 02:08:07;;;;;;;8.13;6.72;;;17.90;99.90;;;;;;5077573;28;20040;-63
2022/08/25 02:10:33;;;;;;;9.00;7.03;;;17.90;99.90;;;;;;5079890;28;20043;-63
2022/08/25 02:12:59;;;;;;;9.48;7.70;;;17.90;99.90;;;;;;5074758;28;20044;-62
2022/08/25 02:15:24;;;;;;;9.85;7.70;;;17.80;99.90;;;;;;5073943;28;20039;-62
2022/08/25 02:17:50;;;;;;;15.20;7.55;;;17.80;99.90;;;;;;5059529;28;20044;-63
2022/08/25 02:20:16;;;;;;;12.05;7.43;;;17.70;99.90;;;;;;5075080;28;20122;-62
2022/08/25 02:22:42;;;;;;;9.02;6.97;;;17.70;99.90;;;;;;5080838;28;20377;-62
2022/08/25 02:25:09;;;;;;;9.32;7.90;;;17.60;99.90;;;;;;5074965;28;20067;-62
2022/08/25 02:27:34;;;;;;;9.27;7.20;;;17.60;99.90;;;;;;5081211;28;20264;-62
2022/08/25 02:30:00;;;;;;;10.05;7.30;;;17.60;99.90;;;;;;5077005;28;20487;-62
2022/08/25 02:32:26;;;;;;;9.93;7.90;;;17.60;99.90;;;;;;5069888;28;20044;-63
2022/08/25 02:34:52;;;;;;;9.20;6.85;;;17.60;99.90;;;;;;5079013;28;20648;-62
2022/08/25 02:37:19;;;;;;;12.60;7.80;;;17.50;99.90;;;;;;5075552;28;20035;-62
2022/08/25 02:39:45;;;;;;;11.15;7.80;;;17.60;99.90;;;;;;5078917;28;20070;-62
2022/08/25 02:42:10;;;;;;;8.05;7.10;;;17.50;99.90;;;;;;5072836;28;20070;-62
2022/08/25 02:44:36;;;;;;;9.20;7.20;;;17.50;99.90;;;;;;5079280;28;20055;-63
2022/08/25 02:47:01;;;;;;;8.45;6.55;;;17.50;99.90;;;;;;5085168;28;20379;-62
2022/08/25 02:49:27;;;;;;;6.80;5.93;;;17.50;99.90;;;;;;5083801;28;20041;-63
2022/08/25 02:51:53;;;;;;;9.50;6.50;;;17.50;99.90;;;;;;5086108;28;20036;-62
2022/08/25 02:54:19;;;;;;;11.07;7.05;;;17.50;99.90;;;;;;5074745;28;21192;-62
2022/08/25 02:56:45;;;;;;;6.57;5.93;;;17.50;99.90;;;;;;5088205;28;20120;-63
2022/08/25 02:59:10;;;;;;;8.68;6.15;;;17.50;99.90;;;;;;5075191;28;20503;-62
2022/08/25 03:01:36;;;;;;;9.80;7.05;;;17.50;99.90;;;;;;5071627;28;20063;-63
2022/08/25 03:04:02;;;;;;;7.93;6.10;;;17.40;99.90;;;;;;5076870;28;20772;-63
2022/08/25 03:06:29;;;;;;;9.25;6.97;;;17.40;99.90;;;;;;5079715;28;20530;-63
2022/08/25 03:08:55;;;;;;;9.45;6.00;;;17.40;99.90;;;;;;5070898;28;20043;-63
2022/08/25 03:11:20;;;;;;;10.57;6.78;;;17.40;99.90;;;;;;5072592;28;20120;-62
2022/08/25 03:13:48;;;;;;;7.90;6.05;;;17.40;99.90;;;;;;5072808;28;20116;-62
2022/08/25 03:16:14;;;;;;;8.63;6.03;;;17.30;99.90;;;;;;5071631;28;20085;-63
2022/08/25 03:18:41;;;;;;;9.75;6.50;;;17.30;99.90;;;;;;5071250;28;20029;-63
2022/08/25 03:21:06;;;;;;;11.35;6.63;;;17.30;99.90;;;;;;5077549;28;20089;-62
2022/08/25 03:23:32;;;;;;;10.35;6.00;;;17.30;99.90;;;;;;5077185;28;20044;-62
2022/08/25 03:28:42;;;;;;;9.27;6.43;;;17.20;99.90;;;;;;5079649;28;20566;-62
2022/08/25 03:31:08;;;;;;;8.10;6.28;;;17.20;99.90;;;;;;5076801;28;20044;-61
2022/08/25 03:33:34;;;;;;;13.80;6.55;;;17.20;99.90;;;;;;5072833;28;20094;-62
2022/08/25 03:35:59;;;;;;;8.85;6.03;;;17.20;99.90;;;;;;5077325;28;20040;-62
2022/08/25 03:38:25;;;;;;;9.18;6.07;;;17.20;99.90;;;;;;5076611;28;20032;-62
2022/08/25 03:40:51;;;;;;;11.05;6.88;;;17.20;99.90;;;;;;5081869;28;20036;-62
2022/08/25 03:43:18;;;;;;;11.80;6.00;;;17.20;99.90;;;;;;5085308;28;20083;-62
2022/08/25 03:45:44;;;;;;;10.73;6.18;;;17.10;99.90;;;;;;5077732;28;20049;-62
2022/08/25 03:48:10;;;;;;;6.95;5.95;;;17.20;99.90;;;;;;5075719;28;20106;-62
2022/08/25 03:50:36;;;;;;;9.82;6.25;;;17.10;99.90;;;;;;5082388;28;20383;-62
2022/08/25 03:53:02;;;;;;;10.98;5.95;;;17.10;99.90;;;;;;5091001;28;20036;-63
2022/08/25 03:55:28;;;;;;;8.65;6.72;;;17.10;99.90;;;;;;5088203;28;20032;-62
2022/08/25 03:57:54;;;;;;;10.15;6.07;;;17.10;99.90;;;;;;5073911;28;20091;-63
2022/08/25 04:00:21;;;;;;;9.95;6.40;;;17.10;99.90;;;;;;5071738;28;20438;-63
2022/08/25 04:02:47;;;;;;;8.52;6.28;;;17.00;99.90;;;;;;5086586;28;20043;-62
2022/08/25 04:05:12;;;;;;;7.65;6.18;;;17.00;99.90;;;;;;5072752;28;20032;-62
2022/08/25 04:07:38;;;;;;;9.63;6.47;;;17.00;99.90;;;;;;5069418;28;20040;-63
2022/08/25 04:10:08;;;;;;;10.45;6.13;;;17.00;99.90;;;;;;5079881;28;20121;-62
2022/08/25 04:12:34;;;;;;;;;;;17.00;99.90;;;;;;5074618;28;21774;-62
2022/08/25 04:15:00;;;;;;;9.05;6.32;;;16.90;99.90;;;;;;5073079;28;20007;-62
2022/08/25 04:17:26;;;;;;;8.85;6.22;;;16.90;99.90;;;;;;5086410;28;20040;-63
2022/08/25 04:19:51;;;;;;;8.95;6.50;;;16.90;99.90;;;;;;5078795;28;20035;-62
2022/08/25 04:22:17;;;;;;;8.13;6.70;;;16.80;99.90;;;;;;5079012;28;20052;-63
2022/08/25 04:24:42;;;;;;;8.15;5.65;;;16.80;99.90;;;;;;5080293;28;20466;-62
2022/08/25 04:27:08;;;;;;;10.13;6.50;;;16.80;99.90;;;;;;5073661;28;20143;-63
2022/08/25 04:29:34;;;;;;;9.43;6.28;;;16.80;99.90;;;;;;5072258;28;20067;-62
2022/08/25 04:31:59;;;;;;;8.55;6.28;;;16.80;99.90;;;;;;5044600;28;20040;-62
2022/08/25 04:34:26;;;;;;;9.07;6.18;;;16.80;99.90;;;;;;5076830;28;20105;-62
2022/08/25 04:36:52;;;;;;;8.07;5.97;;;16.80;99.90;;;;;;5070998;28;20054;-63
2022/08/25 04:39:20;;;;;;;12.45;6.82;;;16.80;99.90;;;;;;5081367;28;20487;-63
2022/08/25 04:41:49;;;;;;;9.00;6.55;;;16.80;99.90;;;;;;5080169;28;20118;-63
2022/08/25 04:44:16;;;;;;;8.45;6.18;;;16.80;99.90;;;;;;5079897;28;20042;-61
2022/08/25 04:46:42;;;;;;;9.98;6.57;;;16.80;99.90;;;;;;5078556;28;20661;-62
2022/08/25 04:49:08;;;;;;;11.77;6.30;;;16.80;99.90;;;;;;5083264;28;20033;-62
2022/08/25 04:51:39;;;;;;;9.85;6.63;;;16.70;99.90;;;;;;5080480;28;20093;-62
2022/08/25 04:54:08;;;;;;;8.38;6.30;;;16.70;99.90;;;;;;5083542;28;20074;-62
2022/08/25 04:56:35;;;;;;;8.40;6.70;;;16.70;99.90;;;;;;5081970;28;20036;-62
2022/08/25 04:59:03;;;;;;;7.95;6.35;;;16.70;99.90;;;;;;5081905;28;20027;-62
2022/08/25 05:01:29;;;;;;;9.32;6.90;;;16.70;99.90;;;;;;5056454;28;20044;-62
2022/08/25 05:03:59;;;;;;;11.95;6.43;;;16.60;99.90;;;;;;5078063;28;20040;-62
2022/08/25 05:06:25;;;;;;;;;;;16.60;99.90;;;;;;5084805;28;20156;-62
2022/08/25 05:08:51;;;;;;;12.45;6.97;;;16.60;99.90;;;;;;5082848;28;20007;-62
2022/08/25 05:11:18;;;;;;;9.85;6.55;;;16.60;99.90;;;;;;5080186;28;20040;-62
2022/08/25 05:13:46;;;;;;;10.02;6.40;;;16.60;99.90;;;;;;5078760;28;20039;-62
2022/08/25 05:16:12;;;;;;;9.52;6.68;;;16.60;99.90;;;;;;5078817;28;20037;-62
2022/08/25 05:18:38;;;;;;;10.63;6.25;;;16.60;99.90;;;;;;5067582;28;20396;-62
2022/08/25 05:21:09;;;;;;;10.18;6.80;;;16.70;99.90;;;;;;5079332;28;20040;-62
2022/08/25 05:23:35;;;;;;;16.15;8.30;;;16.60;99.90;;;;;;5058559;28;20063;-62
2022/08/25 05:26:08;;;;;;;13.60;7.00;;;16.70;99.90;;;;;;5078772;28;20085;-62
2022/08/25 05:28:34;;;;;;;12.43;7.10;;;16.80;99.90;;;;;;5080377;28;20044;-62
2022/08/25 05:31:01;;;;;;;13.15;7.07;;;16.80;99.90;;;;;;5085729;28;20039;-62
2022/08/25 05:33:27;;;;;;;10.18;6.75;;;16.90;99.90;;;;;;5084637;28;20035;-62
2022/08/25 05:35:53;;;;;;;9.25;6.70;;;16.90;99.90;;;;;;5065092;28;20493;-62
2022/08/25 05:38:18;;;;;;;12.45;6.80;;;17.00;99.90;;;;;;5080960;28;20044;-62
2022/08/25 05:40:44;;;;;;;9.02;6.88;;;17.10;99.90;;;;;;5071959;28;20047;-62
2022/08/25 05:43:11;;;;;;;14.50;7.05;;;17.20;99.90;;;;;;5077804;28;20043;-62
2022/08/25 05:45:36;;;;;;;11.35;6.47;;;17.30;99.90;;;;;;5072710;28;20063;-62
2022/08/25 05:48:02;;;;;;;9.88;6.75;;;17.30;99.90;;;;;;5076936;28;20484;-62
2022/08/25 05:50:28;;;;;;;10.23;7.20;;;17.40;99.90;;;;;;5072516;28;20040;-62
2022/08/25 05:52:53;;;;;;;12.57;7.32;;;17.60;99.90;;;;;;5073330;28;22450;-62
2022/08/25 05:55:19;;;;;;;11.13;6.93;;;17.70;99.90;;;;;;5079824;28;20496;-62
2022/08/25 05:57:45;;;;;;;8.40;6.63;;;17.80;99.90;;;;;;5083146;28;20484;-62
2022/08/25 06:00:11;;;;;;;10.15;6.10;;;18.00;99.90;;;;;;5046739;28;20039;-61
2022/08/25 06:02:42;;;;;;;8.52;6.75;;;18.10;99.90;;;;;;5070534;28;20032;-62
2022/08/25 06:05:18;;;;;;;11.68;6.50;;;18.20;99.90;;;;;;5072667;28;20040;-63
2022/08/25 06:07:48;;;;;;;9.60;7.13;;;18.30;99.90;;;;;;5067881;28;20489;-63
2022/08/25 06:10:14;;;;;;;9.32;6.30;;;18.40;99.90;;;;;;5073589;28;20033;-63
2022/08/25 06:12:43;;;;;;;11.20;6.50;;;18.60;99.90;;;;;;5066839;28;20077;-63
2022/08/25 06:15:20;;;;;;;9.18;6.57;;;18.70;99.90;;;;;;5073796;28;20037;-63
2022/08/25 06:17:47;;;;;;;10.30;7.35;;;18.80;99.90;;;;;;5082415;28;20051;-62
2022/08/25 06:20:16;;;;;;;9.95;6.70;;;19.00;99.90;;;;;;5074911;28;20063;-63
2022/08/25 06:22:42;;;;;;;8.65;6.65;;;19.10;99.90;;;;;;5078314;28;20041;-63
2022/08/25 06:25:11;;;;;;;12.00;6.80;;;19.30;99.90;;;;;;5069970;28;21441;-63
2022/08/25 06:27:37;;;;;;;8.38;6.43;;;19.50;99.90;;;;;;5082139;28;20028;-63
2022/08/25 06:30:04;;;;;;;10.55;6.32;;;19.80;99.90;;;;;;5065091;28;20468;-63
2022/08/25 06:32:38;;;;;;;8.63;6.03;;;20.00;99.90;;;;;;5071715;28;20458;-61
2022/08/25 06:35:05;;;;;;;9.98;6.43;;;20.30;99.90;;;;;;5086380;28;20067;-61
2022/08/25 06:37:31;;;;;;;10.60;5.72;;;20.70;99.90;;;;;;5076864;28;20092;-61
2022/08/25 06:39:57;;;;;;;12.98;6.63;;;21.00;99.80;;;;;;5067442;28;20036;-61
2022/08/25 06:42:22;;;;;;;8.85;6.07;;;21.20;99.30;;;;;;5083021;28;20068;-61
2022/08/25 06:44:48;;;;;;;10.75;6.00;;;21.40;98.60;;;;;;5077451;28;20052;-61
2022/08/25 06:47:14;;;;;;;10.50;6.20;;;21.60;97.70;;;;;;5074121;28;20923;-61
2022/08/25 06:49:41;;;;;;;11.43;6.13;;;21.80;96.90;;;;;;5069057;28;20098;-61
2022/08/25 06:52:07;;;;;;;9.95;6.53;;;21.90;96.40;;;;;;5070258;28;20052;-61
2022/08/25 06:54:33;;;;;;;10.35;6.20;;;22.20;96.00;;;;;;5081977;28;20051;-61
2022/08/25 06:56:59;;;;;;;7.45;5.55;;;22.40;95.50;;;;;;5079463;28;20514;-62
2022/08/25 06:59:26;;;;;;;11.30;6.53;;;22.60;95.10;;;;;;5071237;28;20447;-60
2022/08/25 07:01:51;;;;;;;9.85;6.25;;;22.80;93.30;;;;;;5075489;28;20480;-61
2022/08/25 07:04:17;;;;;;;9.48;5.80;;;23.00;93.50;;;;;;5069130;28;20051;-61
2022/08/25 07:06:43;;;;;;;6.75;5.63;;;23.20;92.90;;;;;;5084635;28;20471;-61
2022/08/25 07:09:11;;;;;;;8.15;5.53;;;23.40;92.40;;;;;;5083272;28;20253;-61
2022/08/25 07:11:38;;;;;;;9.15;5.88;;;23.60;91.70;;;;;;5086205;28;20040;-61
2022/08/25 07:14:06;;;;;;;12.63;5.35;;;23.70;90.90;;;;;;5086341;28;20040;-62
2022/08/25 07:16:32;;;;;;;8.30;5.70;;;23.90;90.10;;;;;;5081167;28;20032;-61
2022/08/25 07:18:59;;;;;;;9.43;6.00;;;24.00;90.30;;;;;;5091195;28;20039;-61
2022/08/25 07:21:26;;;;;;;8.02;5.75;;;24.20;89.00;;;;;;5074098;28;20209;-61
2022/08/25 07:23:52;;;;;;;8.48;5.82;;;24.30;88.20;;;;;;5092258;28;20078;-61
2022/08/25 07:26:21;;;;;;;7.05;5.22;;;24.30;87.00;;;;;;5073573;28;20067;-62
2022/08/25 07:28:47;;;;;;;10.32;5.35;;;24.60;86.20;;;;;;5078611;28;20484;-62
2022/08/25 07:31:12;;;;;;;9.43;6.22;;;24.80;85.60;;;;;;5086003;28;20039;-61
2022/08/25 07:35:13;;;;;;;7.38;5.28;;;25.10;84.10;;;;;;5088136;28;20032;-62
2022/08/25 07:36:24;;;;;;;9.57;5.32;;;25.30;83.40;;;;;;5087103;28;20047;-62
2022/08/25 07:38:50;;;;;;;10.52;5.85;;;25.40;82.70;;;;;;5077640;28;20032;-62
2022/08/25 07:41:16;;;;;;;7.75;5.50;;;25.80;81.80;;;;;;5079759;28;20498;-62
2022/08/25 07:43:41;;;;;;;8.85;5.22;;;26.00;80.60;;;;;;5077859;28;20062;-62
2022/08/25 07:46:07;;;;;;;8.95;4.88;;;26.20;78.60;;;;;;5087938;28;20048;-62
2022/08/25 07:48:33;;;;;;;10.32;5.38;;;26.60;77.70;;;;;;5077058;28;20172;-62
2022/08/25 07:51:05;;;;;;;8.32;5.18;;;26.90;77.30;;;;;;5073793;28;20041;-61
2022/08/25 07:53:30;;;;;;;7.18;4.90;;;27.10;74.30;;;;;;5081022;28;20065;-63
2022/08/25 07:55:56;;;;;;;7.05;4.60;;;27.30;72.80;;;;;;5089212;28;20067;-63
2022/08/25 07:58:21;;;;;;;6.38;4.95;;;27.60;72.10;;;;;;5092382;28;20055;-62
2022/08/25 08:00:48;;;;;;;11.18;5.00;;;27.80;70.20;;;;;;5085491;28;20048;-63
2022/08/25 08:03:13;;;;;;;7.00;4.43;;;27.90;69.10;;;;;;5089478;28;20051;-63
2022/08/25 08:05:40;;;;;;;6.38;4.60;;;27.90;67.80;;;;;;5079538;28;20036;-63
2022/08/25 08:08:05;;;;;;;7.95;4.28;;;27.90;66.70;;;;;;5088726;28;20525;-63
2022/08/25 08:10:31;;;;;;;5.82;4.65;;;28.00;66.70;;;;;;5085130;28;20036;-63
2022/08/25 08:12:57;;;;;;;7.13;4.47;;;27.90;65.80;;;;;;5086520;28;20487;-62
2022/08/25 08:15:22;;;;;;;9.60;5.15;;;27.90;65.90;;;;;;5082393;28;20039;-63
2022/08/25 08:17:48;;;;;;;7.78;4.80;;;27.90;65.20;;;;;;5089754;28;20130;-61
2022/08/25 08:20:13;;;;;;;7.25;4.90;;;27.90;64.50;;;;;;5081058;28;20426;-63
2022/08/25 08:22:41;;;;;;;6.97;4.57;;;27.90;63.30;;;;;;5083338;28;20032;-61
2022/08/25 08:25:09;;;;;;;8.63;4.70;;;27.90;62.40;;;;;;5082074;28;20357;-62
2022/08/25 08:27:34;;;;;;;6.65;4.45;;;28.00;62.70;;;;;;5090113;28;20097;-61
2022/08/25 08:30:01;;;;;;;7.20;4.90;;;28.20;62.30;;;;;;5087619;28;20040;-62
2022/08/25 08:32:27;;;;;;;6.85;4.90;;;28.40;62.10;;;;;;5080578;28;20058;-63
2022/08/25 08:34:56;;;;;;;8.63;4.60;;;28.50;61.40;;;;;;5091524;28;20044;-62
2022/08/25 08:37:22;;;;;;;5.40;4.28;;;28.70;61.20;;;;;;5074589;28;20040;-63
2022/08/25 08:39:48;;;;;;;8.63;4.68;;;28.90;60.70;;;;;;5092899;28;20036;-62
2022/08/25 08:42:32;;;;;;;8.30;4.32;;;29.50;60.00;;;;;;5069729;28;20036;-62
2022/08/25 08:45:30;;;;;;;6.53;4.50;;;30.20;59.00;;;;;;5079963;28;20056;-62
2022/08/25 08:48:16;;;;;;;6.80;3.95;;;30.60;57.10;;;;;;5092296;28;20415;-62
2022/08/25 08:51:05;;;;;;;6.35;4.72;;;31.30;56.10;;;;;;5091279;28;20097;-61
2022/08/25 08:53:43;;;;;;;11.43;4.22;;;31.30;53.70;;;;;;5090541;28;20051;-63
2022/08/25 08:56:24;;;;;;;7.20;4.35;;;31.50;54.00;;;;;;5088882;28;20456;-64
2022/08/25 08:59:03;;;;;;;7.65;4.35;;;31.90;54.10;;;;;;5091968;28;20475;-62
2022/08/25 09:01:34;;;;;;;8.82;4.50;;;32.00;52.60;;;;;;5089804;28;20363;-62
2022/08/25 09:04:11;;;;;;;6.75;4.13;;;32.10;52.00;;;;;;5089988;28;20047;-62
2022/08/25 09:06:42;;;;;;;4.60;3.70;;;32.40;50.90;;;;;;5086187;28;20058;-65
2022/08/25 09:09:12;;;;;;;5.95;4.15;;;32.50;51.20;;;;;;5090400;28;20844;-63
2022/08/25 09:11:55;;;;;;;6.35;3.75;;;31.90;51.40;;;;;;5089947;28;20548;-62
2022/08/25 09:14:43;;;;;;;6.72;3.65;;;32.10;50.90;;;;;;5088324;28;20051;-63
2022/08/25 09:17:37;;;;;;;7.35;4.32;;;32.50;50.40;;;;;;5090380;28;20035;-63
2022/08/25 09:20:28;;;;;;;5.22;4.30;;;32.40;50.10;;;;;;5088907;28;20032;-62
2022/08/25 09:22:59;;;;;;;6.45;4.25;;;31.90;50.20;;;;;;5090812;28;20127;-62
2022/08/25 09:25:52;;;;;;;6.55;4.25;;;31.20;51.60;;;;;;5087159;28;20040;-62
2022/08/25 09:28:22;;;;;;;7.28;4.03;;;30.70;51.80;;;;;;5090722;28;20752;-62
2022/08/25 09:30:57;;;;;;;6.03;3.65;;;30.40;52.60;;;;;;5089253;28;20083;-63
2022/08/25 09:33:25;;;;;;;4.47;3.85;;;30.30;53.30;;;;;;5087954;28;20097;-61
2022/08/25 09:35:53;;;;;;;6.95;3.33;;;30.10;52.60;;;;;;5088169;28;20032;-62
2022/08/25 09:38:18;;;;;;;5.60;3.05;;;30.10;52.60;;;;;;5090236;28;20123;-61
2022/08/25 09:40:48;;;;;;;6.57;3.22;;;30.00;51.10;;;;;;5091082;28;20123;-62
2022/08/25 09:43:34;;;;;;;6.40;3.08;;;29.90;50.90;;;;;;5090091;28;20037;-65
2022/08/25 09:46:07;;;;;;;5.25;3.45;;;29.90;51.00;;;;;;5049528;28;1086735;-63
2022/08/25 09:48:49;;;;;;;3.60;3.13;;;29.80;50.80;;;;;;5090578;28;20036;-63
2022/08/25 09:51:20;;;;;;;6.43;3.50;;;29.70;50.40;;;;;;5089126;28;20044;-62
2022/08/25 09:53:57;;;;;;;5.85;3.53;;;29.70;50.80;;;;;;5086481;28;20039;-61
2022/08/25 09:56:26;;;;;;;6.47;3.30;;;29.60;51.20;;;;;;5090651;28;20036;-63
2022/08/25 09:58:53;;;;;;;7.05;3.10;;;29.70;50.60;;;;;;5086511;28;20079;-63
2022/08/25 10:01:20;;;;;;;5.07;3.05;;;29.80;51.30;;;;;;5084096;28;20093;-63
2022/08/25 10:03:59;;;;;;;4.30;2.58;;;30.10;51.20;;;;;;5082519;28;20028;-63
2022/08/25 10:06:28;;;;;;;6.82;3.13;;;30.90;49.50;;;;;;5081653;28;20085;-61
2022/08/25 10:08:58;;;;;;;7.32;2.97;;;31.60;48.70;;;;;;5085186;28;20032;-61
2022/08/25 10:11:32;;;;;;;4.18;2.40;;;31.80;46.30;;;;;;5085590;28;20036;-63
2022/08/25 10:14:05;;;;;;;5.90;3.15;;;31.60;45.70;;;;;;5087925;28;20123;-61
2022/08/25 10:16:31;;;;;;;6.13;2.70;;;31.40;45.50;;;;;;5089533;28;20111;-63
2022/08/25 10:19:05;;;;;;;6.95;3.20;;;31.10;47.20;;;;;;5085559;28;20044;-62
2022/08/25 10:21:31;;;;;;;5.18;2.80;;;30.80;46.20;;;;;;5084375;28;20123;-63
2022/08/25 10:24:00;;;;;;;2.85;2.60;;;30.60;47.10;;;;;;5084016;28;20169;-63
2022/08/25 10:26:46;;;;;;;5.68;2.70;;;30.50;48.10;;;;;;5085190;28;20036;-62
2022/08/25 10:29:24;;;;;;;5.88;3.25;;;30.50;47.90;;;;;;5088451;28;20364;-64
2022/08/25 10:32:18;;;;;;;3.45;2.50;;;30.30;45.90;;;;;;5090022;28;20039;-62
2022/08/25 10:35:00;;;;;;;6.20;2.97;;;30.10;46.10;;;;;;5073438;28;20579;-63
2022/08/25 10:37:58;;;;;;;3.30;2.92;;;30.00;47.30;;;;;;5085581;28;20067;-63
2022/08/25 10:40:27;;;;;;;4.45;2.80;;;30.00;47.90;;;;;;5087841;28;20089;-61
2022/08/25 10:42:52;;;;;;;4.40;2.83;;;29.80;48.00;;;;;;5088633;28;20528;-61
2022/08/25 10:45:44;;;;;;;5.38;3.33;;;29.80;47.90;;;;;;5086731;28;20127;-63
2022/08/25 10:49:00;;;;;;;6.28;3.10;;;29.70;47.30;;;;;;5069409;28;20054;-62
2022/08/25 10:51:49;;;;;;;3.92;3.35;;;29.70;48.20;;;;;;5076503;28;20154;-63
2022/08/25 10:54:39;;;;;;;6.18;3.22;;;29.60;47.80;;;;;;5078128;28;20040;-62
2022/08/25 10:57:22;;;;;;;9.10;3.13;;;29.60;47.80;;;;;;5072003;28;20059;-62
2022/08/25 10:59:56;;;;;;;3.88;2.90;;;29.50;47.90;;;;;;5078902;28;20020;-63
2022/08/25 11:02:49;;;;;;;4.50;3.05;;;29.60;48.30;;;;;;5085345;28;20512;-63
2022/08/25 11:05:30;;;;;;;5.13;3.40;;;29.60;48.10;;;;;;5070326;28;20044;-64
2022/08/25 11:08:18;;;;;;;5.65;3.03;;;29.50;48.80;;;;;;5043959;28;20104;-64
2022/08/25 11:10:49;;;;;;;7.45;3.08;;;29.60;49.00;;;;;;5076086;28;20054;-65
2022/08/25 11:13:36;;;;;;;6.47;3.22;;;29.60;48.40;;;;;;5077162;28;20120;-62
2022/08/25 11:16:10;;;;;;;7.32;3.30;;;29.70;48.30;;;;;;5076397;28;20036;-61
2022/08/25 11:18:50;;;;;;;6.28;3.20;;;29.50;47.90;;;;;;5076359;28;20446;-61
2022/08/25 11:21:22;;;;;;;5.85;3.08;;;29.40;47.10;;;;;;5084193;28;20501;-62
2022/08/25 11:24:17;;;;;;;6.97;3.20;;;29.40;47.10;;;;;;5081691;28;20040;-63
2022/08/25 11:26:53;;;;;;;5.95;3.22;;;29.40;46.90;;;;;;5077778;28;20040;-62
2022/08/25 11:29:22;;;;;;;6.28;3.17;;;29.30;47.80;;;;;;5082114;28;20067;-64
2022/08/25 11:31:52;;;;;;;4.93;3.20;;;29.30;47.90;;;;;;5078753;28;20039;-62
2022/08/25 11:34:18;;;;;;;;;;;29.40;48.20;;;;;;5069740;28;20032;-62
2022/08/25 11:36:58;;;;;;;4.55;3.25;;;29.30;48.00;;;;;;5073763;28;19920;-61
2022/08/25 11:39:36;;;;;;;5.05;2.65;;;29.40;48.30;;;;;;5074895;28;20048;-63
2022/08/25 11:42:32;;;;;;;5.35;3.00;;;29.50;48.70;;;;;;5069769;28;20091;-64
2022/08/25 11:45:06;;;;;;;4.18;2.92;;;29.70;47.00;;;;;;5073951;28;20143;-64
2022/08/25 11:47:53;;;;;;;4.47;3.00;;;29.70;45.80;;;;;;5083659;28;20421;-63
2022/08/25 11:50:24;;;;;;;4.60;3.22;;;29.70;46.10;;;;;;5084998;28;20079;-61
2022/08/25 11:52:54;;;;;;;4.22;3.00;;;29.80;46.40;;;;;;5079324;28;20773;-63
2022/08/25 11:55:22;;;;;;;4.32;3.28;;;29.70;46.10;;;;;;5069010;28;20055;-63
2022/08/25 11:57:50;;;;;;;5.80;3.10;;;29.70;46.80;;;;;;5064036;28;20051;-62
2022/08/25 12:00:37;;;;;;;4.82;2.78;;;29.90;46.80;;;;;;5073034;28;20045;-63
2022/08/25 12:03:25;;;;;;;4.20;3.03;;;29.80;46.10;;;;;;5085496;28;20097;-61
2022/08/25 12:06:16;;;;;;;3.10;2.80;;;29.70;45.70;;;;;;5034673;28;20048;-63
2022/08/25 12:09:02;;;;;;;3.38;2.90;;;29.80;46.20;;;;;;5034225;28;20047;-63
2022/08/25 12:11:36;;;;;;;6.18;3.05;;;29.90;45.70;;;;;;5077727;28;20062;-65
2022/08/25 12:14:20;;;;;;;4.88;2.85;;;30.00;45.90;;;;;;5083232;28;20115;-63
2022/08/25 12:16:55;;;;;;;5.65;2.83;;;30.10;45.30;;;;;;5074747;28;20127;-62
2022/08/25 12:19:36;;;;;;;5.70;3.15;;;30.20;44.60;;;;;;5076869;28;20088;-62
2022/08/25 12:22:01;;;;;;;5.57;3.00;;;30.40;44.40;;;;;;5072854;28;20040;-64
2022/08/25 12:24:42;;;;;;;3.63;2.72;;;30.50;44.60;;;;;;5054069;28;20036;-64
2022/08/25 12:27:23;;;;;;;4.72;3.00;;;30.60;44.70;;;;;;5065712;28;20040;-63
2022/08/25 12:29:57;;;;;;;8.27;2.88;;;30.70;44.40;;;;;;5074245;28;20035;-64
2022/08/25 12:32:45;;;;;;;5.30;2.60;;;30.80;44.30;;;;;;5084710;28;20043;-65
2022/08/25 12:35:19;;;;;;;5.15;3.30;;;30.90;43.20;;;;;;5083187;28;20469;-62
2022/08/25 12:38:09;;;;;;;5.70;3.40;;;31.10;43.70;;;;;;5090370;28;20044;-62
2022/08/25 12:40:44;;;;;;;5.10;2.70;;;31.10;42.80;;;;;;5091710;28;20056;-63
2022/08/25 12:43:19;;;;;;;4.57;3.15;;;30.70;43.80;;;;;;5087077;28;20383;-63
2022/08/25 12:45:49;;;;;;;9.70;3.35;;;30.60;43.80;;;;;;5082911;28;20048;-63
2022/08/25 12:48:27;;;;;;;4.50;2.97;;;30.80;44.20;;;;;;5078349;28;20095;-63
2022/08/25 12:51:11;;;;;;;4.75;3.10;;;31.00;43.90;;;;;;5072158;28;20048;-63
2022/08/25 12:53:38;;;;;;;3.72;2.95;;;31.10;43.80;;;;;;5077803;28;20127;-63
2022/08/25 12:56:17;;;;;;;4.65;3.15;;;31.40;43.90;;;;;;5089154;28;20418;-62
2022/08/25 12:59:01;;;;;;;5.90;3.00;;;31.90;43.50;;;;;;5070097;28;20040;-63
2022/08/25 13:01:40;;;;;;;3.47;3.08;;;32.40;42.50;;;;;;5053578;28;20310;-63
2022/08/25 13:04:32;;;;;;;6.78;3.40;;;33.60;42.10;;;;;;5081199;28;20552;-64
2022/08/25 13:07:08;;;;;;;6.07;3.20;;;35.30;41.00;;;;;;5062635;28;20491;-63